sensor_id;sensor_type;location;lat;lon;timestamp;P1;durP1;ratioP1;P2;durP2;ratioP2
35225;SDS011;21813;49.686;21.766;2023-05-07T00:00:16;58.22;;;38.83;;
35225;SDS011;21813;49.686;21.766;2023-05-07T00:03:04;61.30;;;39.75;;
35225;SDS011;21813;49.686;21.766;2023-05-07T00:05:31;53.97;;;39.00;;
35225;SDS011;21813;49.686;21.766;2023-05-07T00:07:58;58.70;;;40.28;;
35225;SDS011;21813;49.686;21.766;2023-05-07T00:10:24;56.10;;;40.67;;
35225;SDS011;21813;49.686;21.766;2023-05-07T00:12:50;57.53;;;39.33;;
35225;SDS011;21813;49.686;21.766;2023-05-07T00:15:17;58.72;;;39.45;;
35225;SDS011;21813;49.686;21.766;2023-05-07T00:17:43;58.20;;;41.08;;
35225;SDS011;21813;49.686;21.766;2023-05-07T00:20:09;55.63;;;39.85;;
35225;SDS011;21813;49.686;21.766;2023-05-07T00:22:35;60.03;;;41.10;;
35225;SDS011;21813;49.686;21.766;2023-05-07T00:25:01;66.88;;;42.35;;
35225;SDS011;21813;49.686;21.766;2023-05-07T00:27:26;63.40;;;42.85;;
35225;SDS011;21813;49.686;21.766;2023-05-07T00:29:52;68.90;;;44.20;;
35225;SDS011;21813;49.686;21.766;2023-05-07T00:32:18;62.10;;;42.85;;
35225;SDS011;21813;49.686;21.766;2023-05-07T00:34:44;66.72;;;43.33;;
35225;SDS011;21813;49.686;21.766;2023-05-07T00:37:09;60.80;;;41.22;;
35225;SDS011;21813;49.686;21.766;2023-05-07T00:39:37;67.47;;;43.90;;
35225;SDS011;21813;49.686;21.766;2023-05-07T00:42:03;66.40;;;44.13;;
35225;SDS011;21813;49.686;21.766;2023-05-07T00:44:29;57.85;;;40.38;;
35225;SDS011;21813;49.686;21.766;2023-05-07T00:46:55;65.55;;;41.97;;
35225;SDS011;21813;49.686;21.766;2023-05-07T00:49:24;62.85;;;41.10;;
35225;SDS011;21813;49.686;21.766;2023-05-07T00:51:58;60.80;;;41.40;;
35225;SDS011;21813;49.686;21.766;2023-05-07T00:54:26;57.92;;;41.38;;
35225;SDS011;21813;49.686;21.766;2023-05-07T00:56:51;54.05;;;38.53;;
35225;SDS011;21813;49.686;21.766;2023-05-07T00:59:18;54.30;;;38.42;;
35225;SDS011;21813;49.686;21.766;2023-05-07T01:01:44;59.83;;;39.90;;
35225;SDS011;21813;49.686;21.766;2023-05-07T01:04:10;52.28;;;36.30;;
35225;SDS011;21813;49.686;21.766;2023-05-07T01:06:36;58.65;;;38.05;;
35225;SDS011;21813;49.686;21.766;2023-05-07T01:09:04;56.40;;;39.30;;
35225;SDS011;21813;49.686;21.766;2023-05-07T01:11:30;55.03;;;37.65;;
35225;SDS011;21813;49.686;21.766;2023-05-07T01:13:57;53.45;;;35.17;;
35225;SDS011;21813;49.686;21.766;2023-05-07T01:16:25;55.05;;;36.50;;
35225;SDS011;21813;49.686;21.766;2023-05-07T01:18:52;55.63;;;37.42;;
35225;SDS011;21813;49.686;21.766;2023-05-07T01:21:18;57.78;;;38.25;;
35225;SDS011;21813;49.686;21.766;2023-05-07T01:23:48;53.78;;;38.00;;
35225;SDS011;21813;49.686;21.766;2023-05-07T01:26:14;55.30;;;38.58;;
35225;SDS011;21813;49.686;21.766;2023-05-07T01:28:40;55.00;;;38.42;;
35225;SDS011;21813;49.686;21.766;2023-05-07T01:31:06;54.08;;;36.92;;
35225;SDS011;21813;49.686;21.766;2023-05-07T01:33:33;52.10;;;37.08;;
35225;SDS011;21813;49.686;21.766;2023-05-07T01:36:01;54.33;;;38.58;;
35225;SDS011;21813;49.686;21.766;2023-05-07T01:38:32;57.45;;;39.25;;
35225;SDS011;21813;49.686;21.766;2023-05-07T01:40:58;53.63;;;36.65;;
35225;SDS011;21813;49.686;21.766;2023-05-07T01:43:24;57.00;;;35.03;;
35225;SDS011;21813;49.686;21.766;2023-05-07T01:45:50;50.90;;;34.80;;
35225;SDS011;21813;49.686;21.766;2023-05-07T01:48:20;51.03;;;35.30;;
35225;SDS011;21813;49.686;21.766;2023-05-07T01:50:47;51.78;;;35.72;;
35225;SDS011;21813;49.686;21.766;2023-05-07T01:53:13;49.70;;;33.88;;
35225;SDS011;21813;49.686;21.766;2023-05-07T01:55:39;47.67;;;32.67;;
35225;SDS011;21813;49.686;21.766;2023-05-07T01:58:05;47.88;;;32.63;;
35225;SDS011;21813;49.686;21.766;2023-05-07T02:00:31;50.95;;;34.30;;
35225;SDS011;21813;49.686;21.766;2023-05-07T02:02:58;49.60;;;33.00;;
35225;SDS011;21813;49.686;21.766;2023-05-07T02:05:23;47.05;;;32.05;;
35225;SDS011;21813;49.686;21.766;2023-05-07T02:07:52;51.15;;;32.75;;
35225;SDS011;21813;49.686;21.766;2023-05-07T02:10:17;42.72;;;30.15;;
35225;SDS011;21813;49.686;21.766;2023-05-07T02:12:44;43.80;;;30.40;;
35225;SDS011;21813;49.686;21.766;2023-05-07T02:15:09;41.53;;;29.05;;
35225;SDS011;21813;49.686;21.766;2023-05-07T02:17:39;39.25;;;26.63;;
35225;SDS011;21813;49.686;21.766;2023-05-07T02:20:23;43.90;;;29.50;;
35225;SDS011;21813;49.686;21.766;2023-05-07T02:22:49;43.60;;;29.45;;
35225;SDS011;21813;49.686;21.766;2023-05-07T02:25:14;41.35;;;28.13;;
35225;SDS011;21813;49.686;21.766;2023-05-07T02:27:40;43.72;;;29.10;;
35225;SDS011;21813;49.686;21.766;2023-05-07T02:30:06;50.25;;;30.45;;
35225;SDS011;21813;49.686;21.766;2023-05-07T02:32:32;44.28;;;30.27;;
35225;SDS011;21813;49.686;21.766;2023-05-07T02:34:58;45.55;;;29.75;;
35225;SDS011;21813;49.686;21.766;2023-05-07T02:37:24;42.40;;;29.77;;
35225;SDS011;21813;49.686;21.766;2023-05-07T02:39:49;45.33;;;29.88;;
35225;SDS011;21813;49.686;21.766;2023-05-07T02:42:15;43.13;;;29.30;;
35225;SDS011;21813;49.686;21.766;2023-05-07T02:44:40;49.55;;;31.73;;
35225;SDS011;21813;49.686;21.766;2023-05-07T02:47:07;46.50;;;31.85;;
35225;SDS011;21813;49.686;21.766;2023-05-07T02:49:33;45.03;;;31.50;;
35225;SDS011;21813;49.686;21.766;2023-05-07T02:52:00;48.40;;;32.15;;
35225;SDS011;21813;49.686;21.766;2023-05-07T02:54:26;47.53;;;32.83;;
35225;SDS011;21813;49.686;21.766;2023-05-07T02:56:53;47.45;;;33.85;;
35225;SDS011;21813;49.686;21.766;2023-05-07T02:59:18;45.15;;;32.63;;
35225;SDS011;21813;49.686;21.766;2023-05-07T03:01:44;48.28;;;31.73;;
35225;SDS011;21813;49.686;21.766;2023-05-07T03:04:10;50.85;;;30.17;;
35225;SDS011;21813;49.686;21.766;2023-05-07T03:06:36;49.97;;;29.92;;
35225;SDS011;21813;49.686;21.766;2023-05-07T03:09:02;50.05;;;30.77;;
35225;SDS011;21813;49.686;21.766;2023-05-07T03:11:28;53.65;;;30.48;;
35225;SDS011;21813;49.686;21.766;2023-05-07T03:13:54;50.33;;;31.90;;
35225;SDS011;21813;49.686;21.766;2023-05-07T03:16:20;50.97;;;32.15;;
35225;SDS011;21813;49.686;21.766;2023-05-07T03:18:45;50.22;;;30.75;;
35225;SDS011;21813;49.686;21.766;2023-05-07T03:21:11;45.97;;;30.38;;
35225;SDS011;21813;49.686;21.766;2023-05-07T03:23:37;50.55;;;31.77;;
35225;SDS011;21813;49.686;21.766;2023-05-07T03:26:03;53.63;;;31.50;;
35225;SDS011;21813;49.686;21.766;2023-05-07T03:28:29;52.17;;;30.40;;
35225;SDS011;21813;49.686;21.766;2023-05-07T03:30:54;50.97;;;31.20;;
35225;SDS011;21813;49.686;21.766;2023-05-07T03:33:21;52.30;;;31.20;;
35225;SDS011;21813;49.686;21.766;2023-05-07T03:35:47;52.40;;;30.15;;
35225;SDS011;21813;49.686;21.766;2023-05-07T03:38:12;47.67;;;31.02;;
35225;SDS011;21813;49.686;21.766;2023-05-07T03:40:38;51.10;;;30.50;;
35225;SDS011;21813;49.686;21.766;2023-05-07T03:43:04;52.13;;;31.60;;
35225;SDS011;21813;49.686;21.766;2023-05-07T03:45:32;52.17;;;31.00;;
35225;SDS011;21813;49.686;21.766;2023-05-07T03:47:57;46.08;;;26.98;;
35225;SDS011;21813;49.686;21.766;2023-05-07T03:50:23;41.78;;;26.40;;
35225;SDS011;21813;49.686;21.766;2023-05-07T03:52:49;45.40;;;25.20;;
35225;SDS011;21813;49.686;21.766;2023-05-07T03:55:15;40.35;;;22.95;;
35225;SDS011;21813;49.686;21.766;2023-05-07T03:57:40;40.03;;;21.80;;
35225;SDS011;21813;49.686;21.766;2023-05-07T04:00:06;40.30;;;22.25;;
35225;SDS011;21813;49.686;21.766;2023-05-07T04:02:32;43.47;;;21.98;;
35225;SDS011;21813;49.686;21.766;2023-05-07T04:04:59;48.22;;;24.20;;
35225;SDS011;21813;49.686;21.766;2023-05-07T04:07:24;42.67;;;22.23;;
35225;SDS011;21813;49.686;21.766;2023-05-07T04:09:50;39.92;;;22.95;;
35225;SDS011;21813;49.686;21.766;2023-05-07T04:12:16;45.15;;;23.58;;
35225;SDS011;21813;49.686;21.766;2023-05-07T04:14:43;45.47;;;22.73;;
35225;SDS011;21813;49.686;21.766;2023-05-07T04:17:09;41.78;;;20.73;;
35225;SDS011;21813;49.686;21.766;2023-05-07T04:19:36;44.83;;;22.42;;
35225;SDS011;21813;49.686;21.766;2023-05-07T04:22:02;51.28;;;22.15;;
35225;SDS011;21813;49.686;21.766;2023-05-07T04:24:30;38.42;;;21.63;;
35225;SDS011;21813;49.686;21.766;2023-05-07T04:26:58;35.55;;;19.70;;
35225;SDS011;21813;49.686;21.766;2023-05-07T04:29:24;34.75;;;19.35;;
35225;SDS011;21813;49.686;21.766;2023-05-07T04:31:50;30.70;;;18.77;;
35225;SDS011;21813;49.686;21.766;2023-05-07T04:34:16;32.70;;;19.13;;
35225;SDS011;21813;49.686;21.766;2023-05-07T04:36:41;33.85;;;19.10;;
35225;SDS011;21813;49.686;21.766;2023-05-07T04:39:07;29.67;;;16.80;;
35225;SDS011;21813;49.686;21.766;2023-05-07T04:41:35;31.00;;;16.98;;
35225;SDS011;21813;49.686;21.766;2023-05-07T04:44:01;33.55;;;16.85;;
35225;SDS011;21813;49.686;21.766;2023-05-07T04:46:29;30.75;;;15.25;;
35225;SDS011;21813;49.686;21.766;2023-05-07T04:48:55;25.80;;;14.95;;
35225;SDS011;21813;49.686;21.766;2023-05-07T04:51:21;25.13;;;14.75;;
35225;SDS011;21813;49.686;21.766;2023-05-07T04:53:47;21.50;;;15.23;;
35225;SDS011;21813;49.686;21.766;2023-05-07T04:56:13;20.63;;;14.32;;
35225;SDS011;21813;49.686;21.766;2023-05-07T04:58:41;20.80;;;13.48;;
35225;SDS011;21813;49.686;21.766;2023-05-07T05:01:06;20.30;;;12.45;;
35225;SDS011;21813;49.686;21.766;2023-05-07T05:03:33;22.30;;;12.63;;
35225;SDS011;21813;49.686;21.766;2023-05-07T05:05:58;20.38;;;12.73;;
35225;SDS011;21813;49.686;21.766;2023-05-07T05:08:29;20.25;;;13.15;;
35225;SDS011;21813;49.686;21.766;2023-05-07T05:10:55;15.57;;;11.70;;
35225;SDS011;21813;49.686;21.766;2023-05-07T05:13:22;16.80;;;10.90;;
35225;SDS011;21813;49.686;21.766;2023-05-07T05:15:47;17.40;;;10.60;;
35225;SDS011;21813;49.686;21.766;2023-05-07T05:18:14;15.27;;;10.85;;
35225;SDS011;21813;49.686;21.766;2023-05-07T05:20:40;14.48;;;10.88;;
35225;SDS011;21813;49.686;21.766;2023-05-07T05:23:07;17.13;;;12.10;;
35225;SDS011;21813;49.686;21.766;2023-05-07T05:25:33;14.68;;;10.60;;
35225;SDS011;21813;49.686;21.766;2023-05-07T05:27:59;11.35;;;9.48;;
35225;SDS011;21813;49.686;21.766;2023-05-07T05:30:24;11.45;;;9.05;;
35225;SDS011;21813;49.686;21.766;2023-05-07T05:32:50;12.65;;;9.20;;
35225;SDS011;21813;49.686;21.766;2023-05-07T05:35:16;14.32;;;9.98;;
35225;SDS011;21813;49.686;21.766;2023-05-07T05:37:42;12.35;;;9.60;;
35225;SDS011;21813;49.686;21.766;2023-05-07T05:40:08;13.63;;;10.05;;
35225;SDS011;21813;49.686;21.766;2023-05-07T05:42:35;13.30;;;9.77;;
35225;SDS011;21813;49.686;21.766;2023-05-07T05:45:01;11.43;;;8.90;;
35225;SDS011;21813;49.686;21.766;2023-05-07T05:47:26;11.50;;;9.23;;
35225;SDS011;21813;49.686;21.766;2023-05-07T05:49:52;11.88;;;9.30;;
35225;SDS011;21813;49.686;21.766;2023-05-07T05:52:18;10.88;;;8.88;;
35225;SDS011;21813;49.686;21.766;2023-05-07T05:54:43;13.00;;;8.38;;
35225;SDS011;21813;49.686;21.766;2023-05-07T05:57:09;12.40;;;8.60;;
35225;SDS011;21813;49.686;21.766;2023-05-07T05:59:35;9.68;;;7.97;;
35225;SDS011;21813;49.686;21.766;2023-05-07T06:02:01;11.55;;;7.47;;
35225;SDS011;21813;49.686;21.766;2023-05-07T06:04:27;10.90;;;8.02;;
35225;SDS011;21813;49.686;21.766;2023-05-07T06:06:54;10.48;;;7.68;;
35225;SDS011;21813;49.686;21.766;2023-05-07T06:09:20;9.00;;;7.72;;
35225;SDS011;21813;49.686;21.766;2023-05-07T06:11:46;10.48;;;8.15;;
35225;SDS011;21813;49.686;21.766;2023-05-07T06:14:12;12.52;;;8.93;;
35225;SDS011;21813;49.686;21.766;2023-05-07T06:16:40;10.27;;;8.60;;
35225;SDS011;21813;49.686;21.766;2023-05-07T06:19:05;14.02;;;9.43;;
35225;SDS011;21813;49.686;21.766;2023-05-07T06:21:32;12.90;;;10.10;;
35225;SDS011;21813;49.686;21.766;2023-05-07T06:23:57;11.90;;;8.77;;
35225;SDS011;21813;49.686;21.766;2023-05-07T06:26:25;13.40;;;9.30;;
35225;SDS011;21813;49.686;21.766;2023-05-07T06:28:51;9.93;;;8.48;;
35225;SDS011;21813;49.686;21.766;2023-05-07T06:31:19;11.70;;;8.95;;
35225;SDS011;21813;49.686;21.766;2023-05-07T06:33:48;14.50;;;9.05;;
35225;SDS011;21813;49.686;21.766;2023-05-07T06:36:17;11.20;;;8.05;;
35225;SDS011;21813;49.686;21.766;2023-05-07T06:38:43;9.77;;;8.25;;
35225;SDS011;21813;49.686;21.766;2023-05-07T06:41:11;11.82;;;8.82;;
35225;SDS011;21813;49.686;21.766;2023-05-07T06:43:36;11.00;;;8.80;;
35225;SDS011;21813;49.686;21.766;2023-05-07T06:46:04;11.85;;;8.82;;
35225;SDS011;21813;49.686;21.766;2023-05-07T06:48:30;14.18;;;8.82;;
35225;SDS011;21813;49.686;21.766;2023-05-07T06:50:56;11.00;;;7.90;;
35225;SDS011;21813;49.686;21.766;2023-05-07T06:53:23;9.88;;;7.93;;
35225;SDS011;21813;49.686;21.766;2023-05-07T06:55:51;13.75;;;7.55;;
35225;SDS011;21813;49.686;21.766;2023-05-07T06:58:17;11.50;;;7.68;;
35225;SDS011;21813;49.686;21.766;2023-05-07T07:00:44;11.85;;;8.02;;
35225;SDS011;21813;49.686;21.766;2023-05-07T07:03:11;10.43;;;8.43;;
35225;SDS011;21813;49.686;21.766;2023-05-07T07:05:42;12.95;;;9.85;;
35225;SDS011;21813;49.686;21.766;2023-05-07T07:08:08;16.98;;;10.13;;
35225;SDS011;21813;49.686;21.766;2023-05-07T07:10:34;14.85;;;9.88;;
35225;SDS011;21813;49.686;21.766;2023-05-07T07:13:00;15.73;;;10.70;;
35225;SDS011;21813;49.686;21.766;2023-05-07T07:28:42;12.70;;;9.18;;
35225;SDS011;21813;49.686;21.766;2023-05-07T07:31:16;11.90;;;8.68;;
35225;SDS011;21813;49.686;21.766;2023-05-07T07:33:41;10.30;;;7.77;;
35225;SDS011;21813;49.686;21.766;2023-05-07T07:36:09;13.32;;;8.38;;
35225;SDS011;21813;49.686;21.766;2023-05-07T07:38:34;9.63;;;7.20;;
35225;SDS011;21813;49.686;21.766;2023-05-07T07:41:01;8.80;;;6.47;;
35225;SDS011;21813;49.686;21.766;2023-05-07T07:44:02;8.85;;;6.78;;
35225;SDS011;21813;49.686;21.766;2023-05-07T07:51:43;12.60;;;8.82;;
35225;SDS011;21813;49.686;21.766;2023-05-07T07:54:09;9.82;;;7.35;;
35225;SDS011;21813;49.686;21.766;2023-05-07T07:56:34;8.80;;;7.13;;
35225;SDS011;21813;49.686;21.766;2023-05-07T07:59:01;10.27;;;7.57;;
35225;SDS011;21813;49.686;21.766;2023-05-07T08:01:29;8.63;;;7.10;;
35225;SDS011;21813;49.686;21.766;2023-05-07T08:03:56;12.48;;;7.40;;
35225;SDS011;21813;49.686;21.766;2023-05-07T08:06:24;9.20;;;7.07;;
35225;SDS011;21813;49.686;21.766;2023-05-07T08:08:52;9.73;;;7.07;;
35225;SDS011;21813;49.686;21.766;2023-05-07T08:11:18;9.27;;;8.02;;
35225;SDS011;21813;49.686;21.766;2023-05-07T08:13:45;9.32;;;7.80;;
35225;SDS011;21813;49.686;21.766;2023-05-07T08:16:11;11.70;;;9.07;;
35225;SDS011;21813;49.686;21.766;2023-05-07T08:18:38;10.63;;;8.48;;
35225;SDS011;21813;49.686;21.766;2023-05-07T08:21:04;13.15;;;9.63;;
35225;SDS011;21813;49.686;21.766;2023-05-07T08:23:31;10.43;;;8.32;;
35225;SDS011;21813;49.686;21.766;2023-05-07T08:25:57;11.82;;;9.18;;
35225;SDS011;21813;49.686;21.766;2023-05-07T08:28:23;12.00;;;9.10;;
35225;SDS011;21813;49.686;21.766;2023-05-07T08:30:50;11.45;;;8.77;;
35225;SDS011;21813;49.686;21.766;2023-05-07T08:33:16;12.20;;;9.20;;
35225;SDS011;21813;49.686;21.766;2023-05-07T08:35:41;11.60;;;9.43;;
35225;SDS011;21813;49.686;21.766;2023-05-07T08:38:07;10.82;;;8.63;;
35225;SDS011;21813;49.686;21.766;2023-05-07T08:40:39;12.55;;;9.13;;
35225;SDS011;21813;49.686;21.766;2023-05-07T08:43:06;12.23;;;10.30;;
35225;SDS011;21813;49.686;21.766;2023-05-07T08:45:32;14.93;;;10.98;;
35225;SDS011;21813;49.686;21.766;2023-05-07T08:48:00;12.15;;;10.00;;
35225;SDS011;21813;49.686;21.766;2023-05-07T08:50:28;12.77;;;10.07;;
35225;SDS011;21813;49.686;21.766;2023-05-07T08:52:55;11.70;;;9.57;;
35225;SDS011;21813;49.686;21.766;2023-05-07T08:55:22;13.75;;;9.52;;
35225;SDS011;21813;49.686;21.766;2023-05-07T08:57:49;15.55;;;9.45;;
35225;SDS011;21813;49.686;21.766;2023-05-07T09:00:15;15.57;;;10.80;;
35225;SDS011;21813;49.686;21.766;2023-05-07T09:02:41;14.48;;;9.77;;
35225;SDS011;21813;49.686;21.766;2023-05-07T09:05:07;16.35;;;10.85;;
35225;SDS011;21813;49.686;21.766;2023-05-07T09:07:35;13.55;;;10.82;;
35225;SDS011;21813;49.686;21.766;2023-05-07T09:10:02;15.48;;;10.48;;
35225;SDS011;21813;49.686;21.766;2023-05-07T09:12:30;13.48;;;10.23;;
35225;SDS011;21813;49.686;21.766;2023-05-07T09:14:56;14.02;;;10.10;;
35225;SDS011;21813;49.686;21.766;2023-05-07T09:17:22;14.02;;;10.05;;
35225;SDS011;21813;49.686;21.766;2023-05-07T09:19:48;14.30;;;10.55;;
35225;SDS011;21813;49.686;21.766;2023-05-07T09:22:14;12.35;;;10.25;;
35225;SDS011;21813;49.686;21.766;2023-05-07T09:24:40;16.30;;;9.93;;
35225;SDS011;21813;49.686;21.766;2023-05-07T09:27:07;11.85;;;9.27;;
35225;SDS011;21813;49.686;21.766;2023-05-07T09:29:35;12.48;;;9.85;;
35225;SDS011;21813;49.686;21.766;2023-05-07T09:32:01;11.90;;;9.48;;
35225;SDS011;21813;49.686;21.766;2023-05-07T09:34:29;13.05;;;9.10;;
35225;SDS011;21813;49.686;21.766;2023-05-07T09:37:03;11.88;;;9.07;;
35225;SDS011;21813;49.686;21.766;2023-05-07T09:39:39;14.95;;;9.55;;
35225;SDS011;21813;49.686;21.766;2023-05-07T09:42:07;14.93;;;9.55;;
35225;SDS011;21813;49.686;21.766;2023-05-07T09:44:34;13.45;;;9.98;;
35225;SDS011;21813;49.686;21.766;2023-05-07T09:47:00;15.38;;;11.02;;
35225;SDS011;21813;49.686;21.766;2023-05-07T09:49:29;14.02;;;10.52;;
35225;SDS011;21813;49.686;21.766;2023-05-07T09:51:57;14.50;;;10.05;;
35225;SDS011;21813;49.686;21.766;2023-05-07T09:54:25;13.23;;;10.55;;
35225;SDS011;21813;49.686;21.766;2023-05-07T09:56:54;16.67;;;10.68;;
35225;SDS011;21813;49.686;21.766;2023-05-07T09:59:21;14.40;;;10.93;;
35225;SDS011;21813;49.686;21.766;2023-05-07T10:01:49;13.77;;;10.52;;
35225;SDS011;21813;49.686;21.766;2023-05-07T10:04:17;16.30;;;11.25;;
35225;SDS011;21813;49.686;21.766;2023-05-07T10:06:47;15.25;;;11.05;;
35225;SDS011;21813;49.686;21.766;2023-05-07T10:09:13;15.70;;;11.45;;
35225;SDS011;21813;49.686;21.766;2023-05-07T10:11:41;16.83;;;11.52;;
35225;SDS011;21813;49.686;21.766;2023-05-07T10:14:08;16.10;;;10.32;;
35225;SDS011;21813;49.686;21.766;2023-05-07T10:16:36;18.20;;;11.40;;
35225;SDS011;21813;49.686;21.766;2023-05-07T10:19:02;17.60;;;12.93;;
35225;SDS011;21813;49.686;21.766;2023-05-07T10:21:30;18.73;;;12.30;;
35225;SDS011;21813;49.686;21.766;2023-05-07T10:23:59;22.23;;;13.48;;
35225;SDS011;21813;49.686;21.766;2023-05-07T10:26:45;18.95;;;13.23;;
35225;SDS011;21813;49.686;21.766;2023-05-07T10:34:20;14.77;;;10.45;;
35225;SDS011;21813;49.686;21.766;2023-05-07T10:36:48;13.80;;;10.82;;
35225;SDS011;21813;49.686;21.766;2023-05-07T10:39:16;15.05;;;10.60;;
35225;SDS011;21813;49.686;21.766;2023-05-07T10:41:42;14.70;;;10.65;;
35225;SDS011;21813;49.686;21.766;2023-05-07T10:44:10;16.90;;;10.85;;
35225;SDS011;21813;49.686;21.766;2023-05-07T10:46:37;19.38;;;11.88;;
35225;SDS011;21813;49.686;21.766;2023-05-07T10:51:33;19.27;;;12.10;;
35225;SDS011;21813;49.686;21.766;2023-05-07T10:56:41;16.98;;;12.27;;
35225;SDS011;21813;49.686;21.766;2023-05-07T11:01:59;22.00;;;13.98;;
35225;SDS011;21813;49.686;21.766;2023-05-07T11:04:31;19.05;;;12.80;;
35225;SDS011;21813;49.686;21.766;2023-05-07T11:12:45;14.73;;;10.30;;
35225;SDS011;21813;49.686;21.766;2023-05-07T11:17:34;11.07;;;8.27;;
35225;SDS011;21813;49.686;21.766;2023-05-07T11:20:17;16.23;;;10.40;;
35225;SDS011;21813;49.686;21.766;2023-05-07T11:22:44;15.90;;;11.43;;
35225;SDS011;21813;49.686;21.766;2023-05-07T11:25:10;14.07;;;10.05;;
35225;SDS011;21813;49.686;21.766;2023-05-07T11:27:40;13.38;;;10.02;;
35225;SDS011;21813;49.686;21.766;2023-05-07T11:30:06;16.08;;;10.43;;
35225;SDS011;21813;49.686;21.766;2023-05-07T11:32:34;14.55;;;11.00;;
35225;SDS011;21813;49.686;21.766;2023-05-07T11:35:00;14.95;;;10.95;;
35225;SDS011;21813;49.686;21.766;2023-05-07T11:37:27;16.98;;;9.88;;
35225;SDS011;21813;49.686;21.766;2023-05-07T11:40:07;14.32;;;10.40;;
35225;SDS011;21813;49.686;21.766;2023-05-07T11:42:37;15.52;;;11.60;;
35225;SDS011;21813;49.686;21.766;2023-05-07T11:45:05;14.20;;;9.30;;
35225;SDS011;21813;49.686;21.766;2023-05-07T11:50:26;17.17;;;11.20;;
35225;SDS011;21813;49.686;21.766;2023-05-07T11:52:55;15.15;;;9.55;;
35225;SDS011;21813;49.686;21.766;2023-05-07T11:55:23;13.50;;;9.85;;
35225;SDS011;21813;49.686;21.766;2023-05-07T11:58:05;15.55;;;9.23;;
35225;SDS011;21813;49.686;21.766;2023-05-07T12:00:30;14.38;;;9.60;;
35225;SDS011;21813;49.686;21.766;2023-05-07T12:02:59;12.18;;;8.55;;
35225;SDS011;21813;49.686;21.766;2023-05-07T12:05:28;15.68;;;9.48;;
35225;SDS011;21813;49.686;21.766;2023-05-07T12:07:58;10.73;;;8.70;;
35225;SDS011;21813;49.686;21.766;2023-05-07T12:10:24;13.95;;;9.45;;
35225;SDS011;21813;49.686;21.766;2023-05-07T12:12:51;11.88;;;9.15;;
35225;SDS011;21813;49.686;21.766;2023-05-07T12:15:17;13.88;;;9.10;;
35225;SDS011;21813;49.686;21.766;2023-05-07T12:17:48;12.30;;;9.50;;
35225;SDS011;21813;49.686;21.766;2023-05-07T12:20:14;12.05;;;9.57;;
35225;SDS011;21813;49.686;21.766;2023-05-07T12:22:41;14.90;;;10.07;;
35225;SDS011;21813;49.686;21.766;2023-05-07T12:25:07;14.45;;;10.13;;
35225;SDS011;21813;49.686;21.766;2023-05-07T12:27:36;13.60;;;10.27;;
35225;SDS011;21813;49.686;21.766;2023-05-07T12:30:04;12.85;;;9.68;;
35225;SDS011;21813;49.686;21.766;2023-05-07T12:32:32;15.25;;;10.75;;
35225;SDS011;21813;49.686;21.766;2023-05-07T12:35:01;14.85;;;10.23;;
35225;SDS011;21813;49.686;21.766;2023-05-07T12:37:28;14.18;;;9.55;;
35225;SDS011;21813;49.686;21.766;2023-05-07T12:40:09;13.63;;;9.65;;
35225;SDS011;21813;49.686;21.766;2023-05-07T12:42:36;14.45;;;10.95;;
35225;SDS011;21813;49.686;21.766;2023-05-07T12:47:39;12.40;;;9.63;;
35225;SDS011;21813;49.686;21.766;2023-05-07T12:50:05;15.25;;;10.07;;
35225;SDS011;21813;49.686;21.766;2023-05-07T12:52:33;13.38;;;10.20;;
35225;SDS011;21813;49.686;21.766;2023-05-07T12:55:04;15.85;;;10.80;;
35225;SDS011;21813;49.686;21.766;2023-05-07T12:57:40;14.45;;;9.43;;
35225;SDS011;21813;49.686;21.766;2023-05-07T13:00:07;13.43;;;9.73;;
35225;SDS011;21813;49.686;21.766;2023-05-07T13:02:39;14.05;;;10.32;;
35225;SDS011;21813;49.686;21.766;2023-05-07T13:05:05;17.90;;;9.82;;
35225;SDS011;21813;49.686;21.766;2023-05-07T13:07:32;11.32;;;8.80;;
35225;SDS011;21813;49.686;21.766;2023-05-07T13:09:58;11.85;;;9.40;;
35225;SDS011;21813;49.686;21.766;2023-05-07T13:12:25;12.43;;;9.70;;
35225;SDS011;21813;49.686;21.766;2023-05-07T13:14:51;14.75;;;8.88;;
35225;SDS011;21813;49.686;21.766;2023-05-07T13:17:17;14.10;;;9.65;;
35225;SDS011;21813;49.686;21.766;2023-05-07T13:19:43;16.52;;;10.00;;
35225;SDS011;21813;49.686;21.766;2023-05-07T13:22:09;15.18;;;10.65;;
35225;SDS011;21813;49.686;21.766;2023-05-07T13:24:36;13.10;;;9.27;;
35225;SDS011;21813;49.686;21.766;2023-05-07T13:27:03;18.13;;;10.18;;
35225;SDS011;21813;49.686;21.766;2023-05-07T13:29:31;17.00;;;10.65;;
35225;SDS011;21813;49.686;21.766;2023-05-07T13:31:58;17.17;;;10.25;;
35225;SDS011;21813;49.686;21.766;2023-05-07T13:38:11;15.50;;;8.73;;
35225;SDS011;21813;49.686;21.766;2023-05-07T13:40:37;12.98;;;8.55;;
35225;SDS011;21813;49.686;21.766;2023-05-07T13:43:02;15.60;;;9.55;;
35225;SDS011;21813;49.686;21.766;2023-05-07T13:45:28;15.63;;;8.65;;
35225;SDS011;21813;49.686;21.766;2023-05-07T13:47:55;12.40;;;8.85;;
35225;SDS011;21813;49.686;21.766;2023-05-07T13:50:21;12.68;;;9.65;;
35225;SDS011;21813;49.686;21.766;2023-05-07T13:52:47;14.43;;;10.20;;
35225;SDS011;21813;49.686;21.766;2023-05-07T13:55:19;13.90;;;9.23;;
35225;SDS011;21813;49.686;21.766;2023-05-07T13:57:46;15.93;;;9.93;;
35225;SDS011;21813;49.686;21.766;2023-05-07T14:00:13;14.90;;;9.27;;
35225;SDS011;21813;49.686;21.766;2023-05-07T14:02:47;14.30;;;9.52;;
35225;SDS011;21813;49.686;21.766;2023-05-07T14:05:13;12.38;;;9.05;;
35225;SDS011;21813;49.686;21.766;2023-05-07T14:07:40;14.55;;;9.13;;
35225;SDS011;21813;49.686;21.766;2023-05-07T14:10:06;12.98;;;9.38;;
35225;SDS011;21813;49.686;21.766;2023-05-07T14:12:41;12.82;;;8.98;;
35225;SDS011;21813;49.686;21.766;2023-05-07T14:15:07;13.07;;;9.27;;
35225;SDS011;21813;49.686;21.766;2023-05-07T14:17:37;9.55;;;6.82;;
35225;SDS011;21813;49.686;21.766;2023-05-07T14:20:03;15.15;;;8.93;;
35225;SDS011;21813;49.686;21.766;2023-05-07T14:22:31;10.63;;;8.57;;
35225;SDS011;21813;49.686;21.766;2023-05-07T14:24:57;11.02;;;8.48;;
35225;SDS011;21813;49.686;21.766;2023-05-07T14:27:23;16.83;;;9.80;;
35225;SDS011;21813;49.686;21.766;2023-05-07T14:29:49;13.20;;;8.95;;
35225;SDS011;21813;49.686;21.766;2023-05-07T14:32:18;11.70;;;8.75;;
35225;SDS011;21813;49.686;21.766;2023-05-07T14:34:45;13.48;;;8.65;;
35225;SDS011;21813;49.686;21.766;2023-05-07T14:37:12;15.65;;;9.98;;
35225;SDS011;21813;49.686;21.766;2023-05-07T14:39:38;13.75;;;8.82;;
35225;SDS011;21813;49.686;21.766;2023-05-07T14:42:06;13.18;;;9.82;;
35225;SDS011;21813;49.686;21.766;2023-05-07T14:44:36;14.93;;;9.52;;
35225;SDS011;21813;49.686;21.766;2023-05-07T14:47:03;13.80;;;9.38;;
35225;SDS011;21813;49.686;21.766;2023-05-07T14:49:29;13.18;;;8.32;;
35225;SDS011;21813;49.686;21.766;2023-05-07T14:51:59;15.80;;;9.77;;
35225;SDS011;21813;49.686;21.766;2023-05-07T14:54:25;12.93;;;8.57;;
35225;SDS011;21813;49.686;21.766;2023-05-07T14:56:51;17.92;;;9.02;;
35225;SDS011;21813;49.686;21.766;2023-05-07T14:59:18;12.95;;;9.30;;
35225;SDS011;21813;49.686;21.766;2023-05-07T15:01:46;15.05;;;9.55;;